sensor_id;sensor_type;location;lat;lon;timestamp;P1;durP1;ratioP1;P2;durP2;ratioP2
5650;SDS011;40241;52.684;9.758;2024-01-07T00:00:57;9.90;;;5.17;;
5650;SDS011;40241;52.684;9.758;2024-01-07T00:03:22;5.60;;;4.47;;
5650;SDS011;40241;52.684;9.758;2024-01-07T00:05:48;5.37;;;4.87;;
5650;SDS011;40241;52.684;9.758;2024-01-07T00:08:13;4.83;;;3.60;;
5650;SDS011;40241;52.684;9.758;2024-01-07T00:10:38;5.53;;;4.10;;
5650;SDS011;40241;52.684;9.758;2024-01-07T00:13:04;6.87;;;4.60;;
5650;SDS011;40241;52.684;9.758;2024-01-07T00:15:29;7.40;;;4.07;;
5650;SDS011;40241;52.684;9.758;2024-01-07T00:17:54;5.43;;;4.50;;
5650;SDS011;40241;52.684;9.758;2024-01-07T00:20:20;4.43;;;4.03;;
5650;SDS011;40241;52.684;9.758;2024-01-07T00:22:45;5.87;;;3.97;;
5650;SDS011;40241;52.684;9.758;2024-01-07T00:25:11;7.70;;;4.00;;
5650;SDS011;40241;52.684;9.758;2024-01-07T00:27:36;6.40;;;4.50;;
5650;SDS011;40241;52.684;9.758;2024-01-07T00:30:01;5.07;;;4.07;;
5650;SDS011;40241;52.684;9.758;2024-01-07T00:32:27;6.37;;;4.57;;
5650;SDS011;40241;52.684;9.758;2024-01-07T00:34:52;6.60;;;4.50;;
5650;SDS011;40241;52.684;9.758;2024-01-07T00:37:18;6.10;;;3.77;;
5650;SDS011;40241;52.684;9.758;2024-01-07T00:39:43;7.03;;;4.43;;
5650;SDS011;40241;52.684;9.758;2024-01-07T00:42:10;8.57;;;4.50;;
5650;SDS011;40241;52.684;9.758;2024-01-07T00:44:36;5.30;;;4.03;;
5650;SDS011;40241;52.684;9.758;2024-01-07T00:47:02;6.00;;;4.00;;
5650;SDS011;40241;52.684;9.758;2024-01-07T00:49:28;6.33;;;4.70;;
5650;SDS011;40241;52.684;9.758;2024-01-07T00:51:53;5.90;;;4.60;;
5650;SDS011;40241;52.684;9.758;2024-01-07T00:54:18;6.23;;;4.23;;
5650;SDS011;40241;52.684;9.758;2024-01-07T00:56:44;7.30;;;4.60;;
5650;SDS011;40241;52.684;9.758;2024-01-07T00:59:10;5.53;;;4.43;;
5650;SDS011;40241;52.684;9.758;2024-01-07T01:01:35;5.93;;;3.90;;
5650;SDS011;40241;52.684;9.758;2024-01-07T01:04:01;5.90;;;4.30;;
5650;SDS011;40241;52.684;9.758;2024-01-07T01:06:26;5.17;;;3.97;;
5650;SDS011;40241;52.684;9.758;2024-01-07T01:08:51;5.57;;;4.13;;
5650;SDS011;40241;52.684;9.758;2024-01-07T01:11:17;6.67;;;4.30;;
5650;SDS011;40241;52.684;9.758;2024-01-07T01:13:42;5.50;;;3.67;;
5650;SDS011;40241;52.684;9.758;2024-01-07T01:16:07;6.60;;;3.83;;
5650;SDS011;40241;52.684;9.758;2024-01-07T01:18:32;4.53;;;3.50;;
5650;SDS011;40241;52.684;9.758;2024-01-07T01:20:58;6.00;;;3.87;;
5650;SDS011;40241;52.684;9.758;2024-01-07T01:23:23;4.00;;;3.60;;
5650;SDS011;40241;52.684;9.758;2024-01-07T01:25:48;5.13;;;3.40;;
5650;SDS011;40241;52.684;9.758;2024-01-07T01:28:14;4.67;;;3.83;;
5650;SDS011;40241;52.684;9.758;2024-01-07T01:30:39;4.53;;;3.57;;
5650;SDS011;40241;52.684;9.758;2024-01-07T01:33:06;5.10;;;3.70;;
5650;SDS011;40241;52.684;9.758;2024-01-07T01:35:31;4.97;;;3.33;;
5650;SDS011;40241;52.684;9.758;2024-01-07T01:37:56;4.70;;;3.20;;
5650;SDS011;40241;52.684;9.758;2024-01-07T01:40:22;3.47;;;3.17;;
5650;SDS011;40241;52.684;9.758;2024-01-07T01:42:47;4.20;;;3.43;;
5650;SDS011;40241;52.684;9.758;2024-01-07T01:45:15;7.40;;;3.20;;
5650;SDS011;40241;52.684;9.758;2024-01-07T01:47:40;4.60;;;3.40;;
5650;SDS011;40241;52.684;9.758;2024-01-07T01:50:06;6.33;;;3.27;;
5650;SDS011;40241;52.684;9.758;2024-01-07T01:52:32;3.53;;;2.90;;
5650;SDS011;40241;52.684;9.758;2024-01-07T01:54:58;3.67;;;3.10;;
5650;SDS011;40241;52.684;9.758;2024-01-07T01:57:24;4.67;;;3.40;;
5650;SDS011;40241;52.684;9.758;2024-01-07T01:59:57;3.10;;;2.80;;
5650;SDS011;40241;52.684;9.758;2024-01-07T02:02:27;3.40;;;2.83;;
5650;SDS011;40241;52.684;9.758;2024-01-07T02:04:52;4.90;;;2.80;;
5650;SDS011;40241;52.684;9.758;2024-01-07T02:07:18;4.43;;;3.10;;
5650;SDS011;40241;52.684;9.758;2024-01-07T02:09:43;4.13;;;2.80;;
5650;SDS011;40241;52.684;9.758;2024-01-07T02:12:09;5.67;;;3.30;;
5650;SDS011;40241;52.684;9.758;2024-01-07T02:14:36;4.63;;;3.40;;
5650;SDS011;40241;52.684;9.758;2024-01-07T02:17:02;5.00;;;3.20;;
5650;SDS011;40241;52.684;9.758;2024-01-07T02:19:27;4.90;;;2.87;;
5650;SDS011;40241;52.684;9.758;2024-01-07T02:21:53;6.67;;;3.00;;
5650;SDS011;40241;52.684;9.758;2024-01-07T02:24:18;3.83;;;3.17;;
5650;SDS011;40241;52.684;9.758;2024-01-07T02:26:44;9.50;;;3.43;;
5650;SDS011;40241;52.684;9.758;2024-01-07T02:29:09;3.10;;;2.87;;
5650;SDS011;40241;52.684;9.758;2024-01-07T02:31:34;2.27;;;2.10;;
5650;SDS011;40241;52.684;9.758;2024-01-07T02:34:00;4.40;;;3.13;;
5650;SDS011;40241;52.684;9.758;2024-01-07T02:36:25;3.50;;;3.03;;
5650;SDS011;40241;52.684;9.758;2024-01-07T02:38:50;2.90;;;2.63;;
5650;SDS011;40241;52.684;9.758;2024-01-07T02:41:16;3.40;;;2.73;;
5650;SDS011;40241;52.684;9.758;2024-01-07T02:43:41;2.93;;;2.53;;
5650;SDS011;40241;52.684;9.758;2024-01-07T02:46:07;2.50;;;2.30;;
5650;SDS011;40241;52.684;9.758;2024-01-07T02:48:32;2.60;;;2.40;;
5650;SDS011;40241;52.684;9.758;2024-01-07T02:50:58;3.83;;;3.07;;
5650;SDS011;40241;52.684;9.758;2024-01-07T02:53:23;4.33;;;3.13;;
5650;SDS011;40241;52.684;9.758;2024-01-07T02:55:48;5.60;;;3.40;;
5650;SDS011;40241;52.684;9.758;2024-01-07T02:58:14;3.07;;;2.80;;
5650;SDS011;40241;52.684;9.758;2024-01-07T03:00:39;3.30;;;2.17;;
5650;SDS011;40241;52.684;9.758;2024-01-07T03:03:04;2.70;;;2.47;;
5650;SDS011;40241;52.684;9.758;2024-01-07T03:05:30;2.37;;;2.17;;
5650;SDS011;40241;52.684;9.758;2024-01-07T03:07:58;2.90;;;2.47;;
5650;SDS011;40241;52.684;9.758;2024-01-07T03:10:24;2.30;;;2.10;;
5650;SDS011;40241;52.684;9.758;2024-01-07T03:12:49;2.43;;;2.20;;
5650;SDS011;40241;52.684;9.758;2024-01-07T03:15:15;3.00;;;2.60;;
5650;SDS011;40241;52.684;9.758;2024-01-07T03:17:40;1.87;;;1.77;;
5650;SDS011;40241;52.684;9.758;2024-01-07T03:20:05;3.90;;;2.27;;
5650;SDS011;40241;52.684;9.758;2024-01-07T03:22:31;2.60;;;2.40;;
5650;SDS011;40241;52.684;9.758;2024-01-07T03:24:56;3.10;;;2.47;;
5650;SDS011;40241;52.684;9.758;2024-01-07T03:27:22;2.03;;;1.83;;
5650;SDS011;40241;52.684;9.758;2024-01-07T03:29:47;1.60;;;1.50;;
5650;SDS011;40241;52.684;9.758;2024-01-07T03:32:12;1.90;;;1.80;;
5650;SDS011;40241;52.684;9.758;2024-01-07T03:34:38;1.93;;;1.63;;
5650;SDS011;40241;52.684;9.758;2024-01-07T03:37:04;2.87;;;2.20;;
5650;SDS011;40241;52.684;9.758;2024-01-07T03:39:32;3.00;;;2.17;;
5650;SDS011;40241;52.684;9.758;2024-01-07T03:41:58;2.87;;;1.93;;
5650;SDS011;40241;52.684;9.758;2024-01-07T03:44:23;3.00;;;2.33;;
5650;SDS011;40241;52.684;9.758;2024-01-07T03:46:48;3.30;;;2.27;;
5650;SDS011;40241;52.684;9.758;2024-01-07T03:49:14;2.73;;;1.77;;
5650;SDS011;40241;52.684;9.758;2024-01-07T03:51:39;2.20;;;2.00;;
5650;SDS011;40241;52.684;9.758;2024-01-07T03:54:04;2.97;;;2.27;;
5650;SDS011;40241;52.684;9.758;2024-01-07T03:56:30;2.10;;;2.00;;
5650;SDS011;40241;52.684;9.758;2024-01-07T03:58:55;3.27;;;2.17;;
5650;SDS011;40241;52.684;9.758;2024-01-07T04:01:21;2.93;;;2.50;;
5650;SDS011;40241;52.684;9.758;2024-01-07T04:03:46;3.20;;;2.03;;
5650;SDS011;40241;52.684;9.758;2024-01-07T04:06:12;1.80;;;1.70;;
5650;SDS011;40241;52.684;9.758;2024-01-07T04:08:37;2.17;;;1.97;;
5650;SDS011;40241;52.684;9.758;2024-01-07T04:11:02;2.70;;;1.80;;
5650;SDS011;40241;52.684;9.758;2024-01-07T04:13:28;2.50;;;2.30;;
5650;SDS011;40241;52.684;9.758;2024-01-07T04:15:53;2.13;;;1.80;;
5650;SDS011;40241;52.684;9.758;2024-01-07T04:18:18;2.33;;;2.13;;
5650;SDS011;40241;52.684;9.758;2024-01-07T04:20:44;3.10;;;1.80;;
5650;SDS011;40241;52.684;9.758;2024-01-07T04:23:09;3.77;;;2.10;;
5650;SDS011;40241;52.684;9.758;2024-01-07T04:25:34;2.40;;;2.07;;
5650;SDS011;40241;52.684;9.758;2024-01-07T04:28:00;2.67;;;1.80;;
5650;SDS011;40241;52.684;9.758;2024-01-07T04:30:25;2.73;;;2.00;;
5650;SDS011;40241;52.684;9.758;2024-01-07T04:32:50;1.90;;;1.80;;
5650;SDS011;40241;52.684;9.758;2024-01-07T04:35:16;3.07;;;2.00;;
5650;SDS011;40241;52.684;9.758;2024-01-07T04:37:41;3.43;;;2.50;;
5650;SDS011;40241;52.684;9.758;2024-01-07T04:40:07;2.23;;;1.83;;
5650;SDS011;40241;52.684;9.758;2024-01-07T04:42:33;2.30;;;1.90;;
5650;SDS011;40241;52.684;9.758;2024-01-07T04:44:59;5.23;;;2.43;;
5650;SDS011;40241;52.684;9.758;2024-01-07T04:47:31;4.93;;;1.97;;
5650;SDS011;40241;52.684;9.758;2024-01-07T04:49:59;2.00;;;1.80;;
5650;SDS011;40241;52.684;9.758;2024-01-07T04:52:25;3.53;;;1.90;;
5650;SDS011;40241;52.684;9.758;2024-01-07T04:54:54;3.20;;;2.57;;
5650;SDS011;40241;52.684;9.758;2024-01-07T04:57:20;5.77;;;1.87;;
5650;SDS011;40241;52.684;9.758;2024-01-07T04:59:46;1.80;;;1.70;;
5650;SDS011;40241;52.684;9.758;2024-01-07T05:02:13;1.80;;;1.70;;
5650;SDS011;40241;52.684;9.758;2024-01-07T05:04:39;6.57;;;1.80;;
5650;SDS011;40241;52.684;9.758;2024-01-07T05:07:04;4.30;;;1.87;;
5650;SDS011;40241;52.684;9.758;2024-01-07T05:09:31;2.17;;;1.97;;
5650;SDS011;40241;52.684;9.758;2024-01-07T05:11:57;2.07;;;1.67;;
5650;SDS011;40241;52.684;9.758;2024-01-07T05:14:22;2.43;;;1.70;;
5650;SDS011;40241;52.684;9.758;2024-01-07T05:16:47;2.00;;;1.53;;
5650;SDS011;40241;52.684;9.758;2024-01-07T05:19:13;1.87;;;1.43;;
5650;SDS011;40241;52.684;9.758;2024-01-07T05:21:38;2.53;;;1.30;;
5650;SDS011;40241;52.684;9.758;2024-01-07T05:24:04;1.57;;;1.47;;
5650;SDS011;40241;52.684;9.758;2024-01-07T05:26:29;2.73;;;1.70;;
5650;SDS011;40241;52.684;9.758;2024-01-07T05:28:55;1.80;;;1.33;;
5650;SDS011;40241;52.684;9.758;2024-01-07T05:31:20;3.50;;;2.07;;
5650;SDS011;40241;52.684;9.758;2024-01-07T05:33:45;2.53;;;1.50;;
5650;SDS011;40241;52.684;9.758;2024-01-07T05:36:11;1.63;;;1.47;;
5650;SDS011;40241;52.684;9.758;2024-01-07T05:38:37;2.07;;;1.87;;
5650;SDS011;40241;52.684;9.758;2024-01-07T05:41:03;1.60;;;1.50;;
5650;SDS011;40241;52.684;9.758;2024-01-07T05:43:28;2.17;;;1.60;;
5650;SDS011;40241;52.684;9.758;2024-01-07T05:45:53;1.80;;;1.70;;
5650;SDS011;40241;52.684;9.758;2024-01-07T05:48:21;2.10;;;1.57;;
5650;SDS011;40241;52.684;9.758;2024-01-07T05:50:47;1.47;;;1.37;;
5650;SDS011;40241;52.684;9.758;2024-01-07T05:53:12;5.70;;;1.63;;
5650;SDS011;40241;52.684;9.758;2024-01-07T05:55:39;1.63;;;1.53;;
5650;SDS011;40241;52.684;9.758;2024-01-07T05:58:04;2.60;;;1.70;;
5650;SDS011;40241;52.684;9.758;2024-01-07T06:00:30;3.20;;;1.90;;
5650;SDS011;40241;52.684;9.758;2024-01-07T06:02:55;4.27;;;2.07;;
5650;SDS011;40241;52.684;9.758;2024-01-07T06:05:21;1.80;;;1.70;;
5650;SDS011;40241;52.684;9.758;2024-01-07T06:07:46;1.73;;;1.50;;
5650;SDS011;40241;52.684;9.758;2024-01-07T06:10:11;4.53;;;2.17;;
5650;SDS011;40241;52.684;9.758;2024-01-07T06:12:37;2.03;;;1.70;;
5650;SDS011;40241;52.684;9.758;2024-01-07T06:15:02;2.83;;;1.43;;
5650;SDS011;40241;52.684;9.758;2024-01-07T06:17:28;1.53;;;1.40;;
5650;SDS011;40241;52.684;9.758;2024-01-07T06:19:53;1.77;;;1.67;;
5650;SDS011;40241;52.684;9.758;2024-01-07T06:22:19;2.13;;;1.40;;
5650;SDS011;40241;52.684;9.758;2024-01-07T06:24:44;1.40;;;1.30;;
5650;SDS011;40241;52.684;9.758;2024-01-07T06:27:09;2.67;;;1.83;;
5650;SDS011;40241;52.684;9.758;2024-01-07T06:29:35;1.87;;;1.77;;
5650;SDS011;40241;52.684;9.758;2024-01-07T06:32:00;2.10;;;1.97;;
5650;SDS011;40241;52.684;9.758;2024-01-07T06:34:25;1.87;;;1.77;;
5650;SDS011;40241;52.684;9.758;2024-01-07T06:36:51;2.00;;;1.80;;
5650;SDS011;40241;52.684;9.758;2024-01-07T06:39:17;2.90;;;1.50;;
5650;SDS011;40241;52.684;9.758;2024-01-07T06:41:42;3.10;;;1.90;;
5650;SDS011;40241;52.684;9.758;2024-01-07T06:44:07;3.27;;;1.90;;
5650;SDS011;40241;52.684;9.758;2024-01-07T06:46:33;4.13;;;1.77;;
5650;SDS011;40241;52.684;9.758;2024-01-07T06:48:59;2.53;;;1.57;;
5650;SDS011;40241;52.684;9.758;2024-01-07T06:51:25;2.50;;;1.80;;
5650;SDS011;40241;52.684;9.758;2024-01-07T06:53:50;4.30;;;2.37;;
5650;SDS011;40241;52.684;9.758;2024-01-07T06:56:15;7.10;;;2.20;;
5650;SDS011;40241;52.684;9.758;2024-01-07T06:58:41;2.43;;;1.83;;
5650;SDS011;40241;52.684;9.758;2024-01-07T07:01:06;3.13;;;2.20;;
5650;SDS011;40241;52.684;9.758;2024-01-07T07:03:32;2.60;;;1.70;;
5650;SDS011;40241;52.684;9.758;2024-01-07T07:05:57;1.63;;;1.53;;
5650;SDS011;40241;52.684;9.758;2024-01-07T07:08:23;3.03;;;2.00;;
5650;SDS011;40241;52.684;9.758;2024-01-07T07:10:48;2.10;;;1.90;;
5650;SDS011;40241;52.684;9.758;2024-01-07T07:13:13;1.87;;;1.77;;
5650;SDS011;40241;52.684;9.758;2024-01-07T07:15:39;1.70;;;1.60;;
5650;SDS011;40241;52.684;9.758;2024-01-07T07:18:05;3.10;;;2.20;;
5650;SDS011;40241;52.684;9.758;2024-01-07T07:20:30;2.20;;;2.00;;
5650;SDS011;40241;52.684;9.758;2024-01-07T07:22:56;2.33;;;2.13;;
5650;SDS011;40241;52.684;9.758;2024-01-07T07:25:21;4.70;;;1.73;;
5650;SDS011;40241;52.684;9.758;2024-01-07T07:27:46;1.90;;;1.80;;
5650;SDS011;40241;52.684;9.758;2024-01-07T07:30:11;3.10;;;1.97;;
5650;SDS011;40241;52.684;9.758;2024-01-07T07:32:38;1.80;;;1.70;;
5650;SDS011;40241;52.684;9.758;2024-01-07T07:35:05;1.50;;;1.40;;
5650;SDS011;40241;52.684;9.758;2024-01-07T07:37:32;1.80;;;1.70;;
5650;SDS011;40241;52.684;9.758;2024-01-07T07:39:57;2.20;;;1.70;;
5650;SDS011;40241;52.684;9.758;2024-01-07T07:42:23;2.50;;;1.97;;
5650;SDS011;40241;52.684;9.758;2024-01-07T07:44:48;3.90;;;1.80;;
5650;SDS011;40241;52.684;9.758;2024-01-07T07:47:13;1.60;;;1.40;;
5650;SDS011;40241;52.684;9.758;2024-01-07T07:49:39;1.73;;;1.63;;
5650;SDS011;40241;52.684;9.758;2024-01-07T07:52:06;2.53;;;1.60;;
5650;SDS011;40241;52.684;9.758;2024-01-07T07:54:36;1.87;;;1.60;;
5650;SDS011;40241;52.684;9.758;2024-01-07T07:57:02;2.30;;;1.53;;
5650;SDS011;40241;52.684;9.758;2024-01-07T07:59:28;1.30;;;1.20;;
5650;SDS011;40241;52.684;9.758;2024-01-07T08:01:53;1.67;;;1.57;;
5650;SDS011;40241;52.684;9.758;2024-01-07T08:04:19;1.43;;;1.30;;
5650;SDS011;40241;52.684;9.758;2024-01-07T08:06:44;1.67;;;1.53;;
5650;SDS011;40241;52.684;9.758;2024-01-07T08:09:10;1.40;;;1.30;;
5650;SDS011;40241;52.684;9.758;2024-01-07T08:11:35;1.83;;;1.60;;
5650;SDS011;40241;52.684;9.758;2024-01-07T08:14:01;2.43;;;1.60;;
5650;SDS011;40241;52.684;9.758;2024-01-07T08:16:27;1.83;;;1.60;;
5650;SDS011;40241;52.684;9.758;2024-01-07T08:18:52;1.77;;;1.67;;
5650;SDS011;40241;52.684;9.758;2024-01-07T08:21:21;1.40;;;1.30;;
5650;SDS011;40241;52.684;9.758;2024-01-07T08:23:47;3.30;;;1.87;;
5650;SDS011;40241;52.684;9.758;2024-01-07T08:26:17;1.70;;;1.60;;
5650;SDS011;40241;52.684;9.758;2024-01-07T08:28:43;2.57;;;1.50;;
5650;SDS011;40241;52.684;9.758;2024-01-07T08:31:08;4.20;;;1.90;;
5650;SDS011;40241;52.684;9.758;2024-01-07T08:33:34;2.03;;;1.43;;
5650;SDS011;40241;52.684;9.758;2024-01-07T08:35:59;3.37;;;1.27;;
5650;SDS011;40241;52.684;9.758;2024-01-07T08:38:24;1.77;;;1.60;;
5650;SDS011;40241;52.684;9.758;2024-01-07T08:40:50;1.30;;;1.20;;
5650;SDS011;40241;52.684;9.758;2024-01-07T08:43:15;1.80;;;1.70;;
5650;SDS011;40241;52.684;9.758;2024-01-07T08:45:41;1.43;;;1.33;;
5650;SDS011;40241;52.684;9.758;2024-01-07T08:48:06;1.37;;;1.27;;
5650;SDS011;40241;52.684;9.758;2024-01-07T08:50:32;1.30;;;1.20;;
5650;SDS011;40241;52.684;9.758;2024-01-07T08:52:57;2.50;;;1.73;;
5650;SDS011;40241;52.684;9.758;2024-01-07T08:55:23;1.40;;;1.30;;
5650;SDS011;40241;52.684;9.758;2024-01-07T08:57:48;1.77;;;1.67;;
5650;SDS011;40241;52.684;9.758;2024-01-07T09:00:14;1.80;;;1.27;;
5650;SDS011;40241;52.684;9.758;2024-01-07T09:02:40;1.37;;;1.20;;
5650;SDS011;40241;52.684;9.758;2024-01-07T09:05:05;1.57;;;1.20;;
5650;SDS011;40241;52.684;9.758;2024-01-07T09:07:31;1.30;;;1.20;;
5650;SDS011;40241;52.684;9.758;2024-01-07T09:09:57;1.50;;;1.40;;
5650;SDS011;40241;52.684;9.758;2024-01-07T09:12:24;2.40;;;1.50;;
5650;SDS011;40241;52.684;9.758;2024-01-07T09:14:50;1.17;;;1.07;;
5650;SDS011;40241;52.684;9.758;2024-01-07T09:17:15;1.80;;;1.60;;
5650;SDS011;40241;52.684;9.758;2024-01-07T09:19:42;2.47;;;1.33;;
5650;SDS011;40241;52.684;9.758;2024-01-07T09:22:07;1.37;;;1.27;;
5650;SDS011;40241;52.684;9.758;2024-01-07T09:24:32;1.83;;;1.40;;
5650;SDS011;40241;52.684;9.758;2024-01-07T09:26:58;1.53;;;1.43;;
5650;SDS011;40241;52.684;9.758;2024-01-07T09:29:24;1.43;;;1.33;;
5650;SDS011;40241;52.684;9.758;2024-01-07T09:31:49;3.53;;;1.23;;
5650;SDS011;40241;52.684;9.758;2024-01-07T09:34:15;1.83;;;1.50;;
5650;SDS011;40241;52.684;9.758;2024-01-07T09:36:40;1.30;;;1.20;;
5650;SDS011;40241;52.684;9.758;2024-01-07T09:39:05;1.47;;;1.37;;
5650;SDS011;40241;52.684;9.758;2024-01-07T09:41:31;1.33;;;1.20;;
5650;SDS011;40241;52.684;9.758;2024-01-07T09:43:57;1.17;;;1.03;;
5650;SDS011;40241;52.684;9.758;2024-01-07T09:46:24;1.50;;;1.40;;
5650;SDS011;40241;52.684;9.758;2024-01-07T09:48:50;1.63;;;1.27;;
5650;SDS011;40241;52.684;9.758;2024-01-07T09:51:16;1.60;;;1.40;;
5650;SDS011;40241;52.684;9.758;2024-01-07T09:53:46;1.00;;;0.90;;
5650;SDS011;40241;52.684;9.758;2024-01-07T09:56:19;1.93;;;1.20;;
5650;SDS011;40241;52.684;9.758;2024-01-07T09:58:49;1.60;;;1.50;;
5650;SDS011;40241;52.684;9.758;2024-01-07T10:01:15;1.10;;;1.00;;
5650;SDS011;40241;52.684;9.758;2024-01-07T10:03:42;1.03;;;0.93;;
5650;SDS011;40241;52.684;9.758;2024-01-07T10:06:07;1.37;;;0.93;;
5650;SDS011;40241;52.684;9.758;2024-01-07T10:08:33;1.53;;;1.43;;
5650;SDS011;40241;52.684;9.758;2024-01-07T10:10:58;1.30;;;1.20;;
5650;SDS011;40241;52.684;9.758;2024-01-07T10:13:24;1.37;;;1.13;;
5650;SDS011;40241;52.684;9.758;2024-01-07T10:15:49;0.90;;;0.90;;
5650;SDS011;40241;52.684;9.758;2024-01-07T10:18:15;2.50;;;1.47;;
5650;SDS011;40241;52.684;9.758;2024-01-07T10:20:40;1.27;;;1.20;;
5650;SDS011;40241;52.684;9.758;2024-01-07T10:23:05;2.20;;;1.50;;
5650;SDS011;40241;52.684;9.758;2024-01-07T10:25:33;1.93;;;1.60;;
5650;SDS011;40241;52.684;9.758;2024-01-07T10:27:59;1.17;;;1.17;;
5650;SDS011;40241;52.684;9.758;2024-01-07T10:30:26;2.00;;;0.70;;
5650;SDS011;40241;52.684;9.758;2024-01-07T10:32:54;1.10;;;1.00;;
5650;SDS011;40241;52.684;9.758;2024-01-07T10:35:22;1.23;;;1.10;;
5650;SDS011;40241;52.684;9.758;2024-01-07T10:37:53;1.17;;;0.93;;
5650;SDS011;40241;52.684;9.758;2024-01-07T10:40:18;1.20;;;1.10;;
5650;SDS011;40241;52.684;9.758;2024-01-07T10:42:43;1.20;;;1.10;;
5650;SDS011;40241;52.684;9.758;2024-01-07T10:45:10;1.00;;;1.00;;
5650;SDS011;40241;52.684;9.758;2024-01-07T10:47:35;1.17;;;1.07;;
5650;SDS011;40241;52.684;9.758;2024-01-07T10:50:01;1.33;;;1.10;;
5650;SDS011;40241;52.684;9.758;2024-01-07T10:52:28;1.40;;;0.97;;
5650;SDS011;40241;52.684;9.758;2024-01-07T10:54:56;1.60;;;1.00;;
5650;SDS011;40241;52.684;9.758;2024-01-07T10:58:01;0.67;;;0.67;;
5650;SDS011;40241;52.684;9.758;2024-01-07T11:00:21;1.50;;;1.00;;
5650;SDS011;40241;52.684;9.758;2024-01-07T11:02:52;1.60;;;1.37;;
5650;SDS011;40241;52.684;9.758;2024-01-07T11:08:06;0.90;;;0.60;;
5650;SDS011;40241;52.684;9.758;2024-01-07T11:10:50;0.67;;;0.60;;
5650;SDS011;40241;52.684;9.758;2024-01-07T11:13:36;0.73;;;0.70;;
5650;SDS011;40241;52.684;9.758;2024-01-07T11:16:03;1.00;;;0.90;;
5650;SDS011;40241;52.684;9.758;2024-01-07T11:18:39;1.13;;;1.03;;
5650;SDS011;40241;52.684;9.758;2024-01-07T11:21:11;1.00;;;0.70;;
5650;SDS011;40241;52.684;9.758;2024-01-07T11:23:46;0.70;;;0.63;;
5650;SDS011;40241;52.684;9.758;2024-01-07T11:26:11;0.80;;;0.80;;
5650;SDS011;40241;52.684;9.758;2024-01-07T11:28:53;0.90;;;0.70;;
5650;SDS011;40241;52.684;9.758;2024-01-07T11:31:24;0.97;;;0.97;;
5650;SDS011;40241;52.684;9.758;2024-01-07T11:34:09;0.73;;;0.73;;
5650;SDS011;40241;52.684;9.758;2024-01-07T11:36:35;0.60;;;0.60;;
5650;SDS011;40241;52.684;9.758;2024-01-07T11:39:01;1.50;;;1.10;;
5650;SDS011;40241;52.684;9.758;2024-01-07T11:41:28;2.80;;;1.07;;
5650;SDS011;40241;52.684;9.758;2024-01-07T11:43:58;2.50;;;1.27;;
5650;SDS011;40241;52.684;9.758;2024-01-07T11:46:25;1.47;;;1.10;;
5650;SDS011;40241;52.684;9.758;2024-01-07T11:48:54;1.80;;;1.17;;
5650;SDS011;40241;52.684;9.758;2024-01-07T11:51:29;0.70;;;0.60;;
5650;SDS011;40241;52.684;9.758;2024-01-07T11:53:56;1.33;;;1.00;;
5650;SDS011;40241;52.684;9.758;2024-01-07T11:56:25;1.00;;;0.93;;
5650;SDS011;40241;52.684;9.758;2024-01-07T11:58:51;1.07;;;0.80;;
5650;SDS011;40241;52.684;9.758;2024-01-07T12:01:17;1.53;;;1.10;;
5650;SDS011;40241;52.684;9.758;2024-01-07T12:03:43;4.20;;;1.37;;
5650;SDS011;40241;52.684;9.758;2024-01-07T12:06:09;4.53;;;0.90;;
5650;SDS011;40241;52.684;9.758;2024-01-07T12:08:38;0.87;;;0.87;;
5650;SDS011;40241;52.684;9.758;2024-01-07T12:11:11;1.67;;;1.00;;
5650;SDS011;40241;52.684;9.758;2024-01-07T12:13:37;1.07;;;0.83;;
5650;SDS011;40241;52.684;9.758;2024-01-07T12:16:04;1.50;;;1.30;;
5650;SDS011;40241;52.684;9.758;2024-01-07T12:18:30;1.27;;;1.17;;
5650;SDS011;40241;52.684;9.758;2024-01-07T12:20:56;1.90;;;1.23;;
5650;SDS011;40241;52.684;9.758;2024-01-07T12:23:22;1.30;;;1.13;;
5650;SDS011;40241;52.684;9.758;2024-01-07T12:25:48;1.03;;;1.00;;
5650;SDS011;40241;52.684;9.758;2024-01-07T12:28:14;1.57;;;1.47;;
5650;SDS011;40241;52.684;9.758;2024-01-07T12:30:41;2.40;;;1.20;;
5650;SDS011;40241;52.684;9.758;2024-01-07T12:33:07;1.10;;;1.00;;
5650;SDS011;40241;52.684;9.758;2024-01-07T12:35:32;2.23;;;1.40;;
5650;SDS011;40241;52.684;9.758;2024-01-07T12:37:59;1.47;;;1.03;;
5650;SDS011;40241;52.684;9.758;2024-01-07T12:40:24;1.73;;;1.20;;
5650;SDS011;40241;52.684;9.758;2024-01-07T12:42:52;1.07;;;0.97;;
5650;SDS011;40241;52.684;9.758;2024-01-07T12:45:17;0.63;;;0.60;;
5650;SDS011;40241;52.684;9.758;2024-01-07T12:47:42;3.03;;;1.53;;
5650;SDS011;40241;52.684;9.758;2024-01-07T12:50:08;2.00;;;1.20;;
5650;SDS011;40241;52.684;9.758;2024-01-07T12:52:35;1.30;;;1.20;;
5650;SDS011;40241;52.684;9.758;2024-01-07T12:55:02;1.13;;;1.07;;
5650;SDS011;40241;52.684;9.758;2024-01-07T12:57:28;1.10;;;1.00;;
5650;SDS011;40241;52.684;9.758;2024-01-07T12:59:53;0.93;;;0.93;;
5650;SDS011;40241;52.684;9.758;2024-01-07T13:02:19;1.43;;;1.33;;
5650;SDS011;40241;52.684;9.758;2024-01-07T13:04:44;1.77;;;1.00;;
5650;SDS011;40241;52.684;9.758;2024-01-07T13:07:10;2.57;;;1.17;;
5650;SDS011;40241;52.684;9.758;2024-01-07T13:09:35;1.20;;;1.10;;
5650;SDS011;40241;52.684;9.758;2024-01-07T13:12:00;1.60;;;1.03;;
5650;SDS011;40241;52.684;9.758;2024-01-07T13:14:26;2.13;;;1.10;;
5650;SDS011;40241;52.684;9.758;2024-01-07T13:16:51;1.63;;;1.13;;
5650;SDS011;40241;52.684;9.758;2024-01-07T13:19:17;1.10;;;1.00;;
5650;SDS011;40241;52.684;9.758;2024-01-07T13:21:42;1.30;;;1.20;;
5650;SDS011;40241;52.684;9.758;2024-01-07T13:24:07;1.20;;;1.10;;
5650;SDS011;40241;52.684;9.758;2024-01-07T13:26:33;3.63;;;1.30;;
5650;SDS011;40241;52.684;9.758;2024-01-07T13:28:58;0.83;;;0.77;;
5650;SDS011;40241;52.684;9.758;2024-01-07T13:31:23;1.97;;;1.20;;
5650;SDS011;40241;52.684;9.758;2024-01-07T13:33:49;1.73;;;1.33;;
5650;SDS011;40241;52.684;9.758;2024-01-07T13:36:14;1.30;;;1.20;;
5650;SDS011;40241;52.684;9.758;2024-01-07T13:38:39;1.60;;;1.50;;
5650;SDS011;40241;52.684;9.758;2024-01-07T13:41:07;4.13;;;1.60;;
5650;SDS011;40241;52.684;9.758;2024-01-07T13:43:33;5.07;;;1.60;;
5650;SDS011;40241;52.684;9.758;2024-01-07T13:45:59;2.57;;;1.20;;
5650;SDS011;40241;52.684;9.758;2024-01-07T13:48:24;1.57;;;1.40;;
5650;SDS011;40241;52.684;9.758;2024-01-07T13:50:50;2.73;;;1.90;;
5650;SDS011;40241;52.684;9.758;2024-01-07T13:53:18;2.00;;;1.60;;
5650;SDS011;40241;52.684;9.758;2024-01-07T13:55:44;2.30;;;1.17;;
5650;SDS011;40241;52.684;9.758;2024-01-07T13:58:11;1.37;;;1.27;;
5650;SDS011;40241;52.684;9.758;2024-01-07T14:00:36;1.90;;;1.70;;
5650;SDS011;40241;52.684;9.758;2024-01-07T14:03:02;1.57;;;1.47;;
5650;SDS011;40241;52.684;9.758;2024-01-07T14:05:28;1.93;;;1.57;;
5650;SDS011;40241;52.684;9.758;2024-01-07T14:07:54;4.60;;;1.53;;
5650;SDS011;40241;52.684;9.758;2024-01-07T14:10:19;2.63;;;1.30;;
5650;SDS011;40241;52.684;9.758;2024-01-07T14:12:44;1.87;;;1.50;;
5650;SDS011;40241;52.684;9.758;2024-01-07T14:15:10;1.50;;;1.30;;
5650;SDS011;40241;52.684;9.758;2024-01-07T14:17:35;2.37;;;1.57;;
5650;SDS011;40241;52.684;9.758;2024-01-07T14:20:00;1.50;;;1.40;;
5650;SDS011;40241;52.684;9.758;2024-01-07T14:22:26;1.60;;;1.30;;
5650;SDS011;40241;52.684;9.758;2024-01-07T14:24:51;3.53;;;1.40;;
5650;SDS011;40241;52.684;9.758;2024-01-07T14:27:17;2.70;;;1.63;;
5650;SDS011;40241;52.684;9.758;2024-01-07T14:29:42;1.80;;;1.70;;
5650;SDS011;40241;52.684;9.758;2024-01-07T14:32:09;2.80;;;1.50;;
5650;SDS011;40241;52.684;9.758;2024-01-07T14:34:37;1.73;;;1.40;;
5650;SDS011;40241;52.684;9.758;2024-01-07T14:37:04;1.77;;;1.37;;
5650;SDS011;40241;52.684;9.758;2024-01-07T14:39:29;1.40;;;1.30;;
5650;SDS011;40241;52.684;9.758;2024-01-07T14:41:54;1.20;;;1.10;;
5650;SDS011;40241;52.684;9.758;2024-01-07T14:44:19;1.23;;;0.93;;
5650;SDS011;40241;52.684;9.758;2024-01-07T14:46:45;1.60;;;1.40;;
5650;SDS011;40241;52.684;9.758;2024-01-07T14:49:11;1.13;;;1.03;;
5650;SDS011;40241;52.684;9.758;2024-01-07T14:51:36;2.30;;;1.47;;
5650;SDS011;40241;52.684;9.758;2024-01-07T14:54:02;1.63;;;1.40;;
5650;SDS011;40241;52.684;9.758;2024-01-07T14:56:27;2.10;;;1.50;;